Time;durP1;ratioP1;P1;durP2;ratioP2;P2;SDS_P1;SDS_P2;PMS_P1;PMS_P2;Temp;Humidity;BMP_temperature;BMP_pressure;BME280_temperature;BME280_humidity;BME280_pressure;Samples;Min_cycle;Max_cycle;Signal;HPM_P1;HPM_P2
2021/01/07 00:02:25;;;;;;;4.88;1.73;;;3.70;99.90;;;3.35;99.51;101481.47;5012622;28;20107;-78
2021/01/07 00:04:51;;;;;;;2.08;1.50;;;3.70;99.90;;;3.34;99.44;101480.59;4994740;28;20037;-80
2021/01/07 00:07:17;;;;;;;5.10;2.00;;;3.70;99.90;;;3.32;99.35;101471.81;4995532;28;20034;-78
2021/01/07 00:09:43;;;;;;;3.15;1.30;;;3.70;99.90;;;3.24;99.97;101474.34;5013141;28;20037;-79
2021/01/07 00:12:09;;;;;;;3.95;2.15;;;3.70;99.90;;;3.25;99.92;101471.53;4977213;28;20112;-80
2021/01/07 00:14:34;;;;;;;2.42;1.85;;;3.70;99.90;;;3.29;99.90;101467.56;4996446;28;20038;-78
2021/01/07 00:17:00;;;;;;;3.28;1.90;;;3.60;99.90;;;3.27;99.76;101469.53;4985265;28;20041;-79
2021/01/07 00:19:26;;;;;;;4.68;2.00;;;3.60;99.90;;;3.22;99.90;101461.03;4978885;28;20088;-76
2021/01/07 00:21:52;;;;;;;6.75;2.00;;;3.70;99.90;;;3.19;100.00;101460.44;4961829;28;20033;-78
2021/01/07 00:24:18;;;;;;;4.07;1.77;;;3.60;99.90;;;3.19;100.00;101455.91;4990376;28;20038;-77
2021/01/07 00:26:43;;;;;;;5.15;2.03;;;3.60;99.90;;;3.14;100.00;101451.97;4947967;28;20393;-77
2021/01/07 00:29:09;;;;;;;6.72;2.10;;;3.60;99.90;;;3.19;100.00;101450.53;5005672;28;20084;-78
2021/01/07 00:31:35;;;;;;;2.97;1.88;;;3.60;99.90;;;3.25;100.00;101452.69;4994852;28;20042;-79
2021/01/07 00:34:01;;;;;;;3.75;2.10;;;3.60;99.90;;;3.26;100.00;101454.41;4971358;28;20042;-78
2021/01/07 00:36:28;;;;;;;2.13;1.45;;;3.60;99.90;;;3.28;100.00;101447.03;4979548;28;20038;-78
2021/01/07 00:38:54;;;;;;;2.95;2.10;;;3.70;99.90;;;3.28;100.00;101457.78;4983630;28;20124;-76
2021/01/07 00:41:21;;;;;;;4.97;1.70;;;3.70;99.90;;;3.29;100.00;101456.78;4979966;28;20041;-79
2021/01/07 00:43:50;;;;;;;3.83;2.42;;;3.70;99.90;;;3.28;100.00;101452.41;4991356;28;20051;-76
2021/01/07 00:46:17;;;;;;;7.45;2.70;;;3.70;99.90;;;3.31;100.00;101450.44;5014566;28;20037;-76
2021/01/07 00:48:43;;;;;;;3.03;2.05;;;3.70;99.90;;;3.25;100.00;101452.69;5010087;28;20069;-76
2021/01/07 00:51:09;;;;;;;2.63;2.00;;;3.70;99.90;;;3.27;100.00;101450.69;4996269;28;20034;-76
2021/01/07 00:53:35;;;;;;;4.45;2.40;;;3.70;99.90;;;3.33;100.00;101451.16;4976566;28;20084;-76
2021/01/07 00:56:02;;;;;;;4.53;2.00;;;3.70;99.90;;;3.36;100.00;101449.03;4998870;28;20510;-76
2021/01/07 00:58:28;;;;;;;3.05;1.95;;;3.70;99.90;;;3.38;100.00;101448.91;4993890;28;20034;-76
2021/01/07 01:00:54;;;;;;;3.78;2.30;;;3.80;99.90;;;3.41;99.98;101444.06;4975514;28;20144;-76
2021/01/07 01:03:21;;;;;;;2.33;1.88;;;3.70;99.90;;;3.37;100.00;101452.56;4976514;28;20579;-75
2021/01/07 01:05:50;;;;;;;4.07;1.75;;;3.70;99.90;;;3.32;100.00;101444.91;4977691;28;20132;-78
2021/01/07 01:08:17;;;;;;;6.18;1.80;;;3.70;99.90;;;3.28;100.00;101436.25;4961180;28;20042;-79
2021/01/07 01:10:44;;;;;;;2.20;1.75;;;3.70;99.90;;;3.34;100.00;101442.09;4967896;28;20030;-78
2021/01/07 01:13:10;;;;;;;2.75;1.67;;;3.70;99.90;;;3.28;100.00;101438.09;4960337;28;20042;-75
2021/01/07 01:15:37;;;;;;;6.53;1.88;;;3.70;99.90;;;3.33;100.00;101429.63;4985157;28;20026;-77
2021/01/07 01:18:03;;;;;;;2.05;1.38;;;3.70;99.90;;;3.36;100.00;101434.72;4982593;28;20088;-78
2021/01/07 01:20:29;;;;;;;2.83;1.83;;;3.70;99.90;;;3.37;100.00;101431.91;4962750;28;20049;-75
2021/01/07 01:22:55;;;;;;;1.40;1.27;;;3.70;99.90;;;3.40;100.00;101433.44;4975964;28;20038;-78
2021/01/07 01:25:21;;;;;;;3.20;1.67;;;3.70;99.90;;;3.41;100.00;101427.06;4976449;28;20065;-78
2021/01/07 01:27:47;;;;;;;3.03;1.45;;;3.90;99.90;;;3.42;100.00;101429.63;4962331;28;20069;-79
2021/01/07 01:30:15;;;;;;;1.65;1.27;;;3.80;99.90;;;3.46;100.00;101432.91;4976829;28;20045;-80
2021/01/07 01:32:44;;;;;;;3.70;1.60;;;3.80;99.90;;;3.48;100.00;101430.94;4995071;28;20034;-77
2021/01/07 01:35:12;;;;;;;1.67;1.52;;;3.80;99.90;;;3.43;100.00;101425.94;5009468;28;20034;-79
2021/01/07 01:37:39;;;;;;;4.72;1.85;;;3.80;99.90;;;3.46;100.00;101424.81;4980778;28;20487;-78
2021/01/07 01:40:09;;;;;;;2.85;1.40;;;3.80;99.90;;;3.48;100.00;101428.25;4977283;28;20033;-77
2021/01/07 01:42:38;;;;;;;2.75;1.27;;;3.80;99.90;;;3.48;100.00;101422.84;5005011;28;20089;-78
2021/01/07 01:45:05;;;;;;;1.42;1.30;;;3.80;99.90;;;3.49;100.00;101424.56;4975773;28;20029;-77
2021/01/07 01:47:31;;;;;;;1.77;1.38;;;3.90;99.90;;;3.46;100.00;101422.13;4977663;28;20034;-76
2021/01/07 01:49:57;;;;;;;3.47;1.20;;;3.80;99.90;;;3.44;100.00;101426.81;4967566;28;20515;-78
2021/01/07 01:52:26;;;;;;;2.30;1.23;;;3.80;99.90;;;3.47;100.00;101421.16;4975880;28;20052;-76
2021/01/07 01:54:52;;;;;;;4.53;1.80;;;3.90;99.90;;;3.48;100.00;101422.84;4955247;28;20072;-78
2021/01/07 01:57:19;;;;;;;2.47;1.30;;;3.90;99.90;;;3.37;100.00;101423.84;4976251;28;20117;-74
2021/01/07 01:59:45;;;;;;;2.20;1.00;;;3.90;99.90;;;3.44;100.00;101421.41;4973376;28;20065;-75
2021/01/07 02:02:17;;;;;;;1.60;1.10;;;3.90;99.90;;;3.38;100.00;101422.00;4993901;28;20041;-79
2021/01/07 02:04:47;;;;;;;1.92;1.10;;;3.80;99.90;;;3.49;100.00;101413.78;4976729;28;20042;-78
2021/01/07 02:07:22;;;;;;;4.22;1.13;;;3.80;99.90;;;3.49;100.00;101413.78;4962050;28;20037;-79
2021/01/07 02:09:49;;;;;;;3.00;2.28;;;3.90;99.90;;;3.45;100.00;101415.91;4980778;28;20132;-78
2021/01/07 02:12:15;;;;;;;4.15;1.33;;;3.80;99.90;;;3.44;100.00;101410.66;4976935;28;20034;-78
2021/01/07 02:14:44;;;;;;;2.17;1.08;;;3.80;99.90;;;3.44;100.00;101411.50;4959984;28;20030;-79
2021/01/07 02:17:11;;;;;;;1.65;1.10;;;3.90;99.90;;;3.47;100.00;101410.38;4993130;28;20038;-78
2021/01/07 02:19:37;;;;;;;2.20;1.15;;;3.90;99.90;;;3.43;100.00;101419.72;5010582;28;20116;-79
2021/01/07 02:22:04;;;;;;;2.58;1.42;;;3.90;99.90;;;3.47;100.00;101413.06;4977082;28;20038;-78
2021/01/07 02:24:31;;;;;;;1.40;1.10;;;3.80;99.90;;;3.46;100.00;101414.06;4974155;28;20042;-79
2021/01/07 02:27:09;;;;;;;3.83;1.35;;;3.80;99.90;;;3.50;100.00;101407.41;5008928;28;20498;-79
2021/01/07 02:29:37;;;;;;;3.58;1.73;;;3.80;99.90;;;3.45;100.00;101406.97;4975216;28;20120;-79
2021/01/07 02:32:05;;;;;;;2.03;0.77;;;3.80;99.90;;;3.36;100.00;101413.22;4978789;28;20542;-80
2021/01/07 02:34:31;;;;;;;1.85;1.20;;;3.70;99.90;;;3.26;100.00;101403.28;4976479;28;20104;-79
2021/01/07 02:36:57;;;;;;;0.90;0.90;;;3.70;99.90;;;3.33;100.00;101400.03;4977899;28;20042;-79
2021/01/07 02:39:24;;;;;;;6.18;1.30;;;3.70;99.90;;;3.27;100.00;101398.75;5010304;28;20022;-79
2021/01/07 02:41:55;;;;;;;1.67;1.20;;;3.70;99.90;;;3.35;100.00;101395.34;4974829;28;20417;-79
2021/01/07 02:44:22;;;;;;;1.25;1.00;;;3.70;99.90;;;3.36;100.00;101397.06;4977375;28;20026;-80
2021/01/07 02:46:50;;;;;;;1.40;1.30;;;3.70;99.90;;;3.36;100.00;101394.38;4979631;28;20038;-79
2021/01/07 02:49:17;;;;;;;3.75;1.02;;;3.70;99.90;;;3.39;100.00;101392.22;4976334;28;20411;-77
2021/01/07 02:51:43;;;;;;;1.75;0.85;;;3.70;99.90;;;3.38;100.00;101395.94;4992399;28;20060;-79
2021/01/07 02:54:09;;;;;;;1.33;0.88;;;3.70;99.90;;;3.41;100.00;101395.63;4960778;28;20488;-78
2021/01/07 02:56:35;;;;;;;3.25;0.90;;;3.80;99.90;;;3.42;100.00;101385.72;4970545;28;20487;-78
2021/01/07 02:59:01;;;;;;;1.55;1.00;;;3.80;99.90;;;3.47;100.00;101383.47;4998382;28;20041;-78
2021/01/07 03:01:27;;;;;;;2.42;0.70;;;3.80;99.90;;;3.49;100.00;101387.72;4978627;28;20479;-78
2021/01/07 03:03:56;;;;;;;2.10;1.77;;;3.80;99.90;;;3.62;100.00;101380.19;4981141;28;20377;-79
2021/01/07 03:06:23;;;;;;;3.85;0.90;;;3.80;99.90;;;3.61;99.76;101374.97;4964207;28;20598;-77
2021/01/07 03:08:49;;;;;;;1.60;1.00;;;3.70;99.90;;;3.46;100.00;101373.69;4996121;28;20037;-79
2021/01/07 03:11:15;;;;;;;2.63;0.80;;;3.70;99.90;;;3.43;100.00;101373.97;4966072;28;20042;-80
2021/01/07 03:13:41;;;;;;;1.13;0.88;;;3.80;99.90;;;3.37;100.00;101377.25;4986097;28;20416;-80
2021/01/07 03:16:06;;;;;;;1.75;1.10;;;3.80;99.90;;;3.36;100.00;101370.16;4967667;28;20038;-80
2021/01/07 03:18:32;;;;;;;0.60;0.50;;;3.80;99.90;;;3.43;100.00;101365.91;4976040;28;20042;-80
2021/01/07 03:20:58;;;;;;;1.23;0.75;;;3.80;99.90;;;3.48;100.00;101363.66;4980574;28;20078;-79
2021/01/07 03:23:24;;;;;;;1.50;0.90;;;3.80;99.90;;;3.55;100.00;101359.38;4996784;28;20132;-78
2021/01/07 03:25:51;;;;;;;0.60;0.60;;;3.90;99.90;;;3.58;100.00;101359.97;4980803;28;20160;-79
2021/01/07 03:28:17;;;;;;;0.90;0.57;;;3.90;99.90;;;3.61;100.00;101358.84;4995001;28;20034;-80
2021/01/07 03:30:43;;;;;;;1.27;0.82;;;4.00;99.90;;;3.62;100.00;101349.75;4980157;28;20038;-79
2021/01/07 03:33:08;;;;;;;1.60;1.08;;;4.00;99.90;;;3.67;100.00;101352.00;4985729;28;20515;-80
2021/01/07 03:35:34;;;;;;;1.08;0.82;;;4.10;99.90;;;3.63;100.00;101351.44;4979017;28;20073;-80
2021/01/07 03:38:00;;;;;;;4.32;0.90;;;4.10;99.90;;;3.64;100.00;101354.00;4964622;28;20092;-78
2021/01/07 03:40:26;;;;;;;1.17;1.05;;;4.10;99.90;;;3.68;100.00;101346.50;4962803;28;20412;-74
2021/01/07 03:42:52;;;;;;;1.65;0.77;;;4.20;99.90;;;3.73;100.00;101349.59;4946890;28;20073;-74
2021/01/07 03:45:18;;;;;;;1.02;0.73;;;4.10;99.90;;;3.71;100.00;101343.53;4961977;28;20042;-73
2021/01/07 03:47:44;;;;;;;1.40;0.82;;;4.10;99.90;;;3.73;100.00;101346.88;4979013;28;20042;-73
2021/01/07 03:50:11;;;;;;;0.70;0.70;;;4.20;99.90;;;3.76;100.00;101354.69;4984054;28;20411;-74
2021/01/07 03:52:38;;;;;;;1.27;0.88;;;4.10;99.90;;;3.81;100.00;101349.72;4982443;28;20390;-74
2021/01/07 03:55:05;;;;;;;0.50;0.50;;;4.20;99.90;;;3.84;100.00;101352.13;4979417;28;20487;-75
2021/01/07 03:57:33;;;;;;;3.85;0.85;;;4.20;99.90;;;3.86;100.00;101347.44;4996307;28;20042;-75
2021/01/07 03:59:59;;;;;;;1.20;0.60;;;4.20;99.90;;;3.80;100.00;101348.03;4996582;28;20053;-76
2021/01/07 04:02:25;;;;;;;0.65;0.47;;;4.20;99.90;;;3.76;100.00;101348.44;4997277;28;20084;-74
2021/01/07 04:04:51;;;;;;;0.40;0.40;;;4.20;99.90;;;3.74;100.00;101348.59;4976200;28;20050;-74
2021/01/07 04:07:17;;;;;;;1.00;0.43;;;4.20;99.90;;;3.74;100.00;101345.91;4994710;28;20038;-74
2021/01/07 04:09:42;;;;;;;0.43;0.40;;;4.20;99.90;;;3.61;100.00;101353.44;4993466;28;20037;-73
2021/01/07 04:12:08;;;;;;;0.52;0.47;;;4.10;99.90;;;3.69;100.00;101341.97;4978544;28;20076;-75
2021/01/07 04:14:34;;;;;;;0.82;0.60;;;4.10;99.90;;;3.63;100.00;101346.06;4994707;28;20045;-76
2021/01/07 04:17:01;;;;;;;0.90;0.70;;;4.10;99.90;;;3.71;100.00;101337.28;4983997;28;20030;-77
2021/01/07 04:19:27;;;;;;;1.10;0.60;;;4.10;99.90;;;3.65;100.00;101338.69;4977849;28;20038;-73
2021/01/07 04:21:53;;;;;;;1.70;0.75;;;4.10;99.90;;;3.70;100.00;101330.19;4995726;28;20064;-76
2021/01/07 04:24:18;;;;;;;1.95;0.40;;;4.10;99.90;;;3.75;100.00;101339.53;4995170;28;20048;-75
2021/01/07 04:26:45;;;;;;;0.88;0.70;;;4.10;99.90;;;3.77;100.00;101332.16;4993987;28;20065;-74
2021/01/07 04:29:12;;;;;;;0.77;0.70;;;4.20;99.90;;;3.89;100.00;101335.53;4984812;28;20037;-74
2021/01/07 04:31:39;;;;;;;1.98;1.00;;;4.20;99.90;;;3.90;100.00;101338.09;4994688;28;20040;-74
2021/01/07 04:34:05;;;;;;;1.17;0.70;;;4.20;99.90;;;3.93;100.00;101318.97;4963075;28;20111;-75
2021/01/07 04:36:31;;;;;;;1.67;0.90;;;4.30;99.90;;;3.88;100.00;101328.44;4968882;28;20030;-75
2021/01/07 04:38:57;;;;;;;1.25;1.05;;;4.30;99.90;;;3.91;100.00;101326.31;4992247;28;20089;-74
2021/01/07 04:41:23;;;;;;;2.60;1.13;;;4.20;99.90;;;3.89;100.00;101328.31;4975623;28;20126;-74
2021/01/07 04:43:59;;;;;;;2.83;1.33;;;4.30;99.90;;;3.93;100.00;101327.03;4994923;28;20042;-78
2021/01/07 04:46:26;;;;;;;1.60;1.05;;;4.20;99.90;;;3.85;100.00;101334.13;4995455;28;20057;-80
2021/01/07 04:48:53;;;;;;;1.73;1.40;;;4.20;99.90;;;3.84;100.00;101333.25;4972689;28;20038;-80
2021/01/07 04:51:20;;;;;;;1.52;1.17;;;4.20;99.90;;;3.85;100.00;101329.59;4994161;28;20029;-80
2021/01/07 04:53:48;;;;;;;4.13;1.50;;;4.20;99.90;;;3.85;100.00;101329.59;4994006;28;20459;-80
2021/01/07 04:56:14;;;;;;;3.17;1.33;;;4.20;99.90;;;3.81;100.00;101333.59;4962957;28;20048;-79
2021/01/07 04:58:40;;;;;;;1.95;1.48;;;4.20;99.90;;;3.74;100.00;101327.06;4995274;28;20050;-80
2021/01/07 05:01:06;;;;;;;1.27;0.82;;;4.20;99.90;;;3.69;100.00;101323.97;4995001;28;20037;-79
2021/01/07 05:03:33;;;;;;;1.88;1.00;;;4.10;99.90;;;3.76;100.00;101321.53;4961967;28;20033;-79
2021/01/07 05:06:00;;;;;;;1.95;1.10;;;4.20;99.90;;;3.84;100.00;101310.88;4985474;28;20084;-82
2021/01/07 05:08:27;;;;;;;1.35;0.90;;;4.20;99.90;;;3.82;100.00;101311.06;4945691;28;20030;-79
2021/01/07 05:10:54;;;;;;;4.03;1.58;;;4.20;99.90;;;3.75;100.00;101320.69;4976355;28;20046;-78
2021/01/07 05:13:22;;;;;;;2.92;1.38;;;4.20;99.90;;;3.69;100.00;101323.97;4983761;28;20073;-77
2021/01/07 05:15:48;;;;;;;1.75;1.52;;;4.10;99.90;;;3.54;100.00;101315.47;5010566;28;20112;-78
2021/01/07 05:18:14;;;;;;;1.45;1.10;;;4.00;99.90;;;3.63;100.00;101319.13;4946152;28;20038;-78
2021/01/07 05:20:41;;;;;;;1.67;0.90;;;4.10;99.90;;;3.62;100.00;101314.75;4977565;28;20034;-74
2021/01/07 05:23:08;;;;;;;0.57;0.57;;;3.90;99.90;;;3.62;100.00;101320.97;4959733;28;20061;-79
2021/01/07 05:25:38;;;;;;;2.17;0.95;;;3.80;99.90;;;3.43;100.00;101312.94;4990742;28;20034;-78
2021/01/07 05:28:06;;;;;;;0.40;0.30;;;3.70;99.90;;;3.45;100.00;101310.97;4993040;28;20034;-75
2021/01/07 05:30:36;;;;;;;1.02;0.60;;;3.60;99.90;;;3.27;100.00;101307.28;4975875;28;20046;-74
2021/01/07 05:33:06;;;;;;;1.27;0.57;;;3.50;99.90;;;3.48;100.00;101316.06;4977429;28;20066;-76
2021/01/07 05:35:37;;;;;;;0.10;0.10;;;3.50;99.90;;;3.45;100.00;101305.56;4977678;28;20120;-74
2021/01/07 05:38:08;;;;;;;1.10;0.22;;;3.50;99.90;;;3.26;100.00;101308.28;4991961;28;20046;-75
2021/01/07 05:40:35;;;;;;;0.43;0.30;;;3.50;99.90;;;3.25;100.00;101312.81;4991446;28;20037;-76
2021/01/07 05:43:10;;;;;;;1.00;0.20;;;3.50;99.90;;;3.33;100.00;101314.78;4977325;28;20049;-76
2021/01/07 05:45:39;;;;;;;0.22;0.20;;;3.50;99.90;;;3.40;100.00;101312.38;4977137;28;20112;-75
2021/01/07 05:48:06;;;;;;;2.38;0.52;;;3.60;99.90;;;3.40;100.00;101307.84;5010881;28;20038;-80
2021/01/07 05:50:40;;;;;;;2.72;0.30;;;3.60;99.90;;;3.41;100.00;101314.91;4990075;28;20041;-79
2021/01/07 05:53:06;;;;;;;1.45;0.40;;;3.70;99.90;;;3.45;100.00;101307.41;4994399;28;20034;-78
2021/01/07 05:55:33;;;;;;;0.68;0.20;;;3.70;99.90;;;3.49;100.00;101309.69;4974242;28;20038;-78
2021/01/07 05:58:00;;;;;;;1.02;0.30;;;3.80;99.90;;;3.42;100.00;101319.31;4992300;28;20038;-79
2021/01/07 06:00:33;;;;;;;0.30;0.20;;;3.80;99.90;;;3.53;100.00;101318.31;4991099;28;20045;-79
2021/01/07 06:03:01;;;;;;;1.65;0.30;;;3.80;99.90;;;3.48;100.00;101321.44;4994087;28;20125;-78
2021/01/07 06:05:28;;;;;;;1.85;0.40;;;3.80;99.90;;;3.51;100.00;101314.91;4990777;28;20495;-77
2021/01/07 06:07:59;;;;;;;0.20;0.20;;;3.70;99.90;;;3.71;100.00;101321.97;4977331;28;20034;-79
2021/01/07 06:10:25;;;;;;;0.38;0.28;;;3.70;99.90;;;3.70;100.00;101314.91;4967525;28;20512;-79
2021/01/07 06:12:52;;;;;;;0.88;0.40;;;3.80;99.90;;;3.63;100.00;101319.13;4977330;28;20121;-79
2021/01/07 06:15:22;;;;;;;1.02;0.28;;;3.80;99.90;;;3.57;100.00;101319.72;4983806;28;20049;-79
2021/01/07 06:17:49;;;;;;;1.08;0.40;;;3.80;99.90;;;3.44;100.00;101306.56;4995333;28;20030;-80
2021/01/07 06:20:22;;;;;;;0.90;0.43;;;3.80;99.90;;;3.49;100.00;101309.69;4978293;28;20061;-80
2021/01/07 06:22:53;;;;;;;0.40;0.30;;;3.70;99.90;;;3.42;100.00;101305.00;4963335;28;20073;-78
2021/01/07 06:25:21;;;;;;;1.95;0.40;;;3.70;99.90;;;3.38;100.00;101314.38;4978775;28;20085;-76
2021/01/07 06:27:50;;;;;;;0.32;0.32;;;3.60;99.90;;;3.45;100.00;101304.72;4995287;28;20467;-79
2021/01/07 06:30:15;;;;;;;0.88;0.25;;;3.60;99.90;;;3.43;100.00;101304.00;4978334;28;20038;-74
2021/01/07 06:32:46;;;;;;;2.25;0.43;;;3.60;99.90;;;3.44;100.00;101300.34;4993925;28;20065;-74
2021/01/07 06:35:15;;;;;;;1.15;0.40;;;3.50;99.90;;;3.46;100.00;101306.44;4994359;28;20491;-75
2021/01/07 06:37:51;;;;;;;0.80;0.30;;;3.60;99.90;;;3.29;100.00;101311.53;5010172;28;20032;-75
2021/01/07 06:40:22;;;;;;;0.68;0.30;;;3.50;99.90;;;3.45;100.00;101310.97;4976068;28;20026;-76
2021/01/07 06:42:54;;;;;;;1.60;0.45;;;3.60;99.90;;;3.45;100.00;101299.34;4972513;28;20054;-75
2021/01/07 06:45:23;;;;;;;0.25;0.25;;;3.60;99.90;;;3.58;100.00;101299.91;4980981;28;20121;-75
2021/01/07 06:47:55;;;;;;;0.70;0.40;;;3.70;99.90;;;3.60;100.00;101303.31;4996491;28;20030;-76
2021/01/07 06:50:22;;;;;;;2.05;0.55;;;3.80;99.90;;;3.72;100.00;101302.16;4989776;28;20091;-76
2021/01/07 06:52:50;;;;;;;0.98;0.52;;;3.80;99.90;;;3.64;100.00;101307.38;4966735;28;20072;-76
2021/01/07 06:55:20;;;;;;;4.45;0.80;;;3.80;99.90;;;3.60;100.00;101311.38;4964374;28;20046;-75
2021/01/07 06:57:54;;;;;;;8.10;1.67;;;3.80;99.90;;;3.49;100.00;101301.63;4980590;28;20431;-75
2021/01/07 07:00:22;;;;;;;2.33;1.23;;;3.70;99.90;;;3.24;100.00;101315.63;4982162;28;20460;-80
2021/01/07 07:03:04;;;;;;;3.85;0.60;;;3.60;99.90;;;3.32;100.00;101314.94;4999572;28;20030;-81
2021/01/07 07:05:35;;;;;;;2.83;0.45;;;3.50;99.90;;;3.23;100.00;101309.41;4998056;28;20053;-81
2021/01/07 07:08:09;;;;;;;4.05;0.57;;;3.50;99.90;;;3.25;100.00;101310.13;4998833;28;20092;-77
2021/01/07 07:10:34;;;;;;;1.13;0.47;;;3.40;99.90;;;3.30;100.00;101307.00;4985050;28;20026;-79
2021/01/07 07:13:21;;;;;;;4.60;0.75;;;3.40;99.90;;;3.25;100.00;101299.38;4999230;28;20060;-77
2021/01/07 07:15:49;;;;;;;2.67;0.52;;;3.40;99.90;;;3.29;100.00;101295.38;5015103;28;20034;-79
2021/01/07 07:18:33;;;;;;;2.10;1.10;;;3.50;99.90;;;3.25;100.00;101293.97;4999916;28;20045;-80
2021/01/07 07:21:02;;;;;;;2.67;0.75;;;3.50;99.90;;;3.25;100.00;101293.97;5005907;28;20045;-77
2021/01/07 07:23:29;;;;;;;2.10;0.50;;;3.40;99.90;;;3.18;100.00;101303.59;4976631;28;20044;-79
2021/01/07 07:25:55;;;;;;;3.65;1.00;;;3.30;99.90;;;3.20;100.00;101304.31;4977302;28;20049;-79
2021/01/07 07:28:26;;;;;;;3.63;0.80;;;3.30;99.90;;;3.20;100.00;101301.63;5005453;28;20056;-79
2021/01/07 07:30:53;;;;;;;1.25;0.60;;;3.40;99.90;;;3.45;100.00;101310.09;4986175;28;20114;-80
2021/01/07 07:33:36;;;;;;;8.80;2.10;;;3.40;99.90;;;3.31;100.00;101302.47;4974736;28;20046;-80
2021/01/07 07:36:07;;;;;;;3.38;1.02;;;3.40;99.90;;;3.18;100.00;101303.59;4983640;28;20035;-80
2021/01/07 07:38:41;;;;;;;1.33;0.60;;;3.40;99.90;;;3.20;100.00;101307.00;4993502;28;20053;-81
2021/01/07 07:41:10;;;;;;;7.03;1.35;;;3.40;99.90;;;3.19;100.00;101309.81;4989253;28;20057;-79
2021/01/07 07:43:38;;;;;;;5.70;1.13;;;3.40;99.90;;;3.37;100.00;101307.28;4977937;28;20046;-80
2021/01/07 07:46:06;;;;;;;7.28;1.40;;;3.50;99.90;;;3.48;100.00;101310.69;4998289;28;20473;-82
2021/01/07 07:48:33;;;;;;;4.25;1.45;;;3.50;99.90;;;3.65;100.00;101311.78;4998785;28;20037;-81
2021/01/07 07:51:11;;;;;;;7.80;1.17;;;3.60;99.90;;;3.63;100.00;101319.13;5004893;28;20049;-79
2021/01/07 07:53:39;;;;;;;5.40;1.27;;;3.70;99.90;;;3.46;100.00;101323.41;5005780;28;20018;-81
2021/01/07 07:56:21;;;;;;;3.33;1.27;;;3.70;99.90;;;3.36;100.00;101324.41;4985736;28;20373;-79
2021/01/07 07:58:48;;;;;;;3.78;1.20;;;3.70;99.90;;;3.37;100.00;101329.66;4974597;28;20047;-80
2021/01/07 08:01:14;;;;;;;3.47;1.50;;;3.70;99.90;;;3.49;100.00;101333.06;5019729;28;20035;-80
2021/01/07 08:03:40;;;;;;;3.42;0.68;;;3.60;99.90;;;3.45;100.00;101337.00;4993773;28;20069;-79
2021/01/07 08:06:05;;;;;;;1.42;0.90;;;3.60;99.90;;;3.37;100.00;101340.44;4976607;28;20029;-80
2021/01/07 08:08:34;;;;;;;2.28;0.68;;;3.60;99.90;;;3.40;100.00;101340.13;4967236;28;20042;-80
2021/01/07 08:11:02;;;;;;;0.80;0.47;;;3.60;99.90;;;3.44;100.00;101336.16;4979136;28;20049;-80
2021/01/07 08:13:30;;;;;;;1.88;0.85;;;3.60;99.90;;;3.35;100.00;101341.56;4982021;28;20042;-80
2021/01/07 08:16:01;;;;;;;0.65;0.60;;;3.50;99.90;;;3.44;100.00;101340.69;4984506;28;20480;-75
2021/01/07 08:18:29;;;;;;;4.03;0.77;;;3.60;99.90;;;3.42;100.00;101348.06;4979474;28;20148;-80
2021/01/07 08:21:07;;;;;;;1.85;0.60;;;3.60;99.90;;;3.42;100.00;101342.66;4954604;28;20014;-78
2021/01/07 08:23:33;;;;;;;1.42;0.75;;;3.60;99.90;;;3.47;100.00;101351.19;5001390;28;20093;-78
2021/01/07 08:26:01;;;;;;;5.88;1.10;;;3.70;99.90;;;3.54;100.00;101349.59;4976647;28;20129;-75
2021/01/07 08:28:43;;;;;;;4.72;0.98;;;3.70;99.90;;;3.36;100.00;101351.31;4999037;28;20081;-80
2021/01/07 08:31:18;;;;;;;2.83;1.00;;;3.70;99.90;;;3.09;100.00;101358.22;4981287;28;20053;-78
2021/01/07 08:33:46;;;;;;;4.05;1.60;;;3.50;99.90;;;2.97;100.00;101361.19;5002650;28;20136;-76
2021/01/07 08:36:15;;;;;;;4.93;1.50;;;3.40;99.90;;;2.95;100.00;101361.31;4969659;28;20038;-75
2021/01/07 08:38:47;;;;;;;4.85;1.45;;;3.20;99.90;;;3.07;100.00;101353.97;4977427;28;20096;-71
2021/01/07 08:41:21;;;;;;;4.28;1.58;;;3.20;99.90;;;3.10;100.00;101351.88;4996104;28;20052;-73
2021/01/07 08:43:50;;;;;;;;;;;3.20;99.90;;;2.84;100.00;101356.06;4991514;28;20492;-72
2021/01/07 08:46:26;;;;;;;4.22;1.30;;;3.20;99.90;;;2.95;100.00;101352.41;4994961;28;19917;-72
2021/01/07 08:49:16;;;;;;;1.83;1.17;;;3.10;99.90;;;3.03;100.00;101352.56;4992039;28;20069;-76
2021/01/07 08:51:48;;;;;;;2.42;1.13;;;3.20;99.90;;;3.02;100.00;101357.09;5005098;28;20045;-73
2021/01/07 08:54:21;;;;;;;3.13;1.02;;;3.20;99.90;;;2.91;100.00;101363.44;4976003;28;20026;-77
2021/01/07 08:56:53;;;;;;;2.10;1.00;;;3.20;99.90;;;2.89;100.00;101362.72;4992417;28;20042;-74
2021/01/07 08:59:38;;;;;;;4.55;1.00;;;3.20;99.90;;;2.78;100.00;101353.94;4992532;28;20032;-76
2021/01/07 09:02:06;;;;;;;3.65;0.68;;;3.10;99.90;;;2.82;100.00;101355.38;4947746;28;20412;-77
2021/01/07 09:04:35;;;;;;;3.25;0.65;;;3.00;99.90;;;2.99;100.00;101352.00;5000213;28;20089;-78
2021/01/07 09:07:07;;;;;;;2.80;1.02;;;3.10;99.90;;;3.23;100.00;101341.69;4984872;28;20456;-76
2021/01/07 09:09:45;;;;;;;2.88;0.73;;;3.30;99.90;;;3.20;100.00;101344.66;4984869;28;20045;-82
2021/01/07 09:12:34;;;;;;;2.33;0.90;;;3.40;99.90;;;3.38;100.00;101341.28;4997787;28;20135;-79
2021/01/07 09:15:24;;;;;;;6.88;0.82;;;3.50;99.90;;;3.60;100.00;101341.84;4998254;28;20034;-76
2021/01/07 09:17:56;;;;;;;4.85;0.98;;;3.60;99.90;;;3.67;100.00;101347.47;4964418;28;20524;-76
2021/01/07 09:20:33;;;;;;;2.47;0.82;;;3.70;99.90;;;3.62;100.00;101345.19;4988889;28;20122;-78
2021/01/07 09:23:13;;;;;;;7.03;0.90;;;3.70;99.90;;;3.60;100.00;101340.97;4985999;28;20053;-77
2021/01/07 09:25:39;;;;;;;4.18;1.20;;;3.80;99.90;;;3.67;100.00;101336.72;4993492;28;20119;-78
2021/01/07 09:28:05;;;;;;;3.05;0.90;;;3.90;99.90;;;3.55;100.00;101338.72;4992311;28;20046;-76
2021/01/07 09:30:32;;;;;;;2.70;1.00;;;3.80;99.90;;;3.79;100.00;101346.34;4977857;28;20041;-77
2021/01/07 09:32:58;;;;;;;6.38;1.40;;;3.80;99.90;;;3.46;100.00;101349.47;4997004;28;20037;-80
2021/01/07 09:35:25;;;;;;;1.58;0.50;;;3.70;99.90;;;3.27;100.00;101350.34;4976714;28;20133;-78
2021/01/07 09:37:52;;;;;;;4.70;0.93;;;3.60;99.90;;;3.47;100.00;101341.28;4979071;28;20094;-79
2021/01/07 09:40:20;;;;;;;2.50;1.00;;;3.60;99.90;;;3.53;100.00;101351.44;4960024;28;20038;-79
2021/01/07 09:42:46;;;;;;;1.00;0.50;;;3.70;99.90;;;3.82;100.00;101351.44;4989151;28;20046;-80
2021/01/07 09:45:12;;;;;;;3.17;1.05;;;3.70;99.90;;;3.95;100.00;101341.19;4981672;28;20396;-77
2021/01/07 09:47:39;;;;;;;1.95;1.38;;;3.90;99.90;;;4.14;100.00;101328.66;5005775;28;20065;-77
2021/01/07 09:50:08;;;;;;;6.43;1.13;;;4.00;99.90;;;4.30;100.00;101334.25;5013533;28;20539;-73
2021/01/07 09:52:34;;;;;;;7.93;1.65;;;4.10;99.90;;;4.18;100.00;101341.69;5003707;28;20033;-78
2021/01/07 09:55:01;;;;;;;4.43;1.23;;;4.20;99.90;;;4.01;100.00;101339.75;5009113;28;20559;-70
2021/01/07 09:57:27;;;;;;;8.73;1.67;;;4.20;99.90;;;3.93;100.00;101353.97;5000633;28;20088;-75
2021/01/07 09:59:53;;;;;;;4.53;2.05;;;4.10;99.90;;;3.81;100.00;101355.13;4994682;28;20049;-82
2021/01/07 10:02:19;;;;;;;9.27;1.73;;;4.10;99.90;;;3.88;100.00;101352.69;4990981;28;20041;-76
2021/01/07 10:04:45;;;;;;;10.48;1.40;;;4.00;99.90;;;3.87;100.00;101349.16;4993088;28;20038;-79
2021/01/07 10:07:13;;;;;;;5.07;1.45;;;4.00;99.90;;;3.97;100.00;101333.81;4978588;28;20026;-80
2021/01/07 10:09:39;;;;;;;7.30;1.63;;;4.00;99.90;;;4.07;100.00;101332.94;4987404;28;20444;-74
2021/01/07 10:12:06;;;;;;;5.10;1.60;;;4.10;99.90;;;4.09;100.00;101336.34;4995833;28;20038;-74
2021/01/07 10:14:33;;;;;;;4.20;1.73;;;4.10;99.90;;;4.01;100.00;101331.69;4997202;28;20129;-73
2021/01/07 10:17:03;;;;;;;5.97;1.33;;;4.20;99.90;;;4.18;100.00;101324.66;4994459;28;20081;-72
2021/01/07 10:19:33;;;;;;;5.72;1.15;;;4.20;99.90;;;3.98;100.00;101330.13;4985876;28;20045;-75
2021/01/07 10:22:07;;;;;;;4.28;1.35;;;4.20;99.90;;;3.92;100.00;101329.88;4977317;28;20030;-69
2021/01/07 10:24:46;;;;;;;1.95;0.95;;;4.10;99.90;;;3.78;100.00;101330.31;5005197;28;20492;-71
2021/01/07 10:27:17;;;;;;;10.82;1.35;;;4.10;99.90;;;3.83;100.00;101330.75;5011803;28;20033;-71